KDMA/DMA METAR and TAF weather

Enter ICAO airport designator
Station Type Date Time Source
KDMA METAR 2019/04/18 19:56 UTC NOAA

KDMA 181956Z AUTO 34007KT 6SM HZ CLR 27/02 A3012 RMK AO2 SLP169 T02650024 $


Station Type Date Time Source
KDMA Decoded METAR 2019/04/18 19:56 UTC NOAA

Davis-Monthan Air Force Base, AZ, United States (KDMA) 32-10N 110-53W
Apr 18, 2019 - 03:56 PM EDT / 2019.04.18 1956 UTC
Wind: from the NNW (340 degrees) at 8 MPH (7 KT):0
Visibility: 6 mile(s):0
Sky conditions: clear
Weather: haze
Temperature: 79.7 F (26.5 C)
Dew Point: 36.3 F (2.4 C)
Relative Humidity: 20%
Pressure (altimeter): 30.12 in. Hg (1019 hPa)
ob: KDMA 181956Z AUTO 34007KT 6SM HZ CLR 27/02 A3012 RMK AO2 SLP169 T02650024
cycle: 20

Station Type Date Time Source
KDMA TAF 2019/04/18 14:14 UTC NOAA

TAF KDMA 181400Z 1814/1920 VRB06KT 9999 SKC QNH3009INS
BECMG 1817/1818 02009KT 9999 SKC QNH3005INS
BECMG 1900/1901 VRB06KT 9999 SKC QNH3000INS TX31/1823Z TN09/1814Z

Example: see airport list